Time;durP1;ratioP1;P1;durP2;ratioP2;P2;SDS_P1;SDS_P2;PMS_P1;PMS_P2;Temp;Humidity;BMP_temperature;BMP_pressure;BME280_temperature;BME280_humidity;BME280_pressure;Samples;Min_cycle;Max_cycle;Signal;HPM_P1;HPM_P2
2023/01/29 00:01:04;;;;;;;5.30;3.60;;;;;;;;;;5090287;28;20453;-70
2023/01/29 00:03:31;;;;;;;3.37;2.87;;;;;;;;;;5090356;28;20455;-70
2023/01/29 00:05:58;;;;;;;3.30;2.73;;;;;;;;;;5088910;28;20509;-71
2023/01/29 00:08:27;;;;;;;2.20;1.93;;;;;;;;;;5090212;28;20488;-70
2023/01/29 00:10:54;;;;;;;4.20;2.00;;;;;;;;;;5090630;28;20453;-71
2023/01/29 00:13:21;;;;;;;4.47;4.07;;;;;;;;;;5092369;28;20449;-71
2023/01/29 00:15:54;;;;;;;2.33;1.97;;;;;;;;;;5094608;28;20509;-71
2023/01/29 00:18:21;;;;;;;3.70;2.90;;;;;;;;;;5094243;28;20455;-70
2023/01/29 00:20:48;;;;;;;4.40;3.17;;;;;;;;;;5094588;28;20452;-71
2023/01/29 00:23:16;;;;;;;4.80;2.00;;;;;;;;;;5093944;28;20457;-71
2023/01/29 00:25:44;;;;;;;3.27;1.90;;;;;;;;;;5093876;28;20445;-71
2023/01/29 00:28:11;;;;;;;3.60;2.83;;;;;;;;;;5093553;28;20480;-70
2023/01/29 00:30:39;;;;;;;4.27;2.13;;;;;;;;;;5092997;28;20975;-71
2023/01/29 00:33:06;;;;;;;3.27;2.17;;;;;;;;;;5093158;28;20460;-72
2023/01/29 00:35:33;;;;;;;6.03;3.87;;;;;;;;;;5093200;28;20472;-70
2023/01/29 00:38:00;;;;;;;7.20;2.83;;;;;;;;;;5093521;28;20449;-71
2023/01/29 00:44:56;;;;;;;3.67;3.20;;;;;;;;;;5093269;28;20452;-71
2023/01/29 00:46:01;;;;;;;2.93;2.20;;;;;;;;;;5090850;28;20964;-70
2023/01/29 00:48:28;;;;;;;4.30;2.50;;;;;;;;;;5091154;28;20488;-70
2023/01/29 00:50:55;;;;;;;5.23;3.70;;;;;;;;;;5084066;28;20446;-70
2023/01/29 00:53:22;;;;;;;3.10;2.20;;;;;;;;;;5091034;28;20465;-70
2023/01/29 00:55:49;;;;;;;3.73;2.60;;;;;;;;;;5094105;28;20773;-70
2023/01/29 00:58:21;;;;;;;5.33;4.00;;;;;;;;;;5093919;28;20457;-71
2023/01/29 01:00:48;;;;;;;4.27;2.70;;;;;;;;;;5093877;28;20471;-70
2023/01/29 01:03:14;;;;;;;4.20;3.70;;;;;;;;;;5088508;28;20498;-70
2023/01/29 01:05:42;;;;;;;4.13;3.00;;;;;;;;;;5093147;28;20453;-70
2023/01/29 01:10:58;;;;;;;8.33;4.17;;;;;;;;;;5092026;28;20433;-70
2023/01/29 01:13:27;;;;;;;3.50;2.77;;;;;;;;;;5092690;28;20952;-70
2023/01/29 01:15:54;;;;;;;3.23;2.30;;;;;;;;;;5093265;28;20448;-70
2023/01/29 01:18:21;;;;;;;6.23;2.83;;;;;;;;;;5092889;28;20465;-70
2023/01/29 01:20:50;;;;;;;4.23;2.37;;;;;;;;;;5093717;28;20453;-70
2023/01/29 01:23:18;;;;;;;3.23;2.80;;;;;;;;;;5093553;28;20449;-71
2023/01/29 01:25:45;;;;;;;3.23;2.40;;;;;;;;;;5095565;28;20539;-70
2023/01/29 01:28:12;;;;;;;3.20;2.87;;;;;;;;;;5098995;28;20980;-70
2023/01/29 01:30:41;;;;;;;3.47;2.50;;;;;;;;;;5098783;28;20658;-71
2023/01/29 01:33:08;;;;;;;4.40;3.27;;;;;;;;;;5100652;28;20958;-71
2023/01/29 01:35:35;;;;;;;3.33;2.20;;;;;;;;;;5100963;28;20962;-72
2023/01/29 01:38:03;;;;;;;2.60;1.93;;;;;;;;;;5103187;28;20532;-69
2023/01/29 01:40:30;;;;;;;3.27;2.30;;;;;;;;;;5090770;28;20444;-72
2023/01/29 01:42:58;;;;;;;2.80;2.10;;;;;;;;;;5102528;28;20931;-71
2023/01/29 01:45:27;;;;;;;2.97;2.67;;;;;;;;;;5101559;28;20477;-70
2023/01/29 01:47:57;;;;;;;3.73;2.80;;;;;;;;;;5093800;28;20451;-70
2023/01/29 01:50:27;;;;;;;2.60;1.90;;;;;;;;;;5092368;28;20463;-71
2023/01/29 01:52:57;;;;;;;10.80;3.73;;;;;;;;;;5092193;28;20450;-70
2023/01/29 01:55:26;;;;;;;4.67;2.47;;;;;;;;;;5088399;28;20805;-70
2023/01/29 01:57:56;;;;;;;2.97;2.60;;;;;;;;;;5092117;28;20449;-70
2023/01/29 02:00:25;;;;;;;3.60;2.10;;;;;;;;;;5091436;28;20811;-70
2023/01/29 02:11:11;;;;;;;3.70;2.53;;;;;;;;;;5091849;28;20586;-72
2023/01/29 02:13:38;;;;;;;3.00;2.00;;;;;;;;;;5082894;28;20445;-70
2023/01/29 02:16:06;;;;;;;2.50;2.30;;;;;;;;;;5091786;28;20937;-70
2023/01/29 02:18:36;;;;;;;3.70;2.23;;;;;;;;;;5091732;28;20560;-70
2023/01/29 02:21:23;;;;;;;3.97;2.67;;;;;;;;;;5091827;28;20424;-71
2023/01/29 02:24:01;;;;;;;5.00;2.80;;;;;;;;;;5090605;28;20458;-70
2023/01/29 02:26:43;;;;;;;3.83;2.97;;;;;;;;;;5080942;28;20951;-70
2023/01/29 02:29:23;;;;;;;2.33;1.90;;;;;;;;;;5075483;28;20507;-70
2023/01/29 02:31:54;;;;;;;3.53;3.10;;;;;;;;;;5091462;28;20441;-70
2023/01/29 02:34:25;;;;;;;3.33;2.80;;;;;;;;;;5091453;28;20474;-70
2023/01/29 02:36:58;;;;;;;3.17;2.40;;;;;;;;;;5091590;28;20437;-70
2023/01/29 02:39:29;;;;;;;3.40;2.80;;;;;;;;;;5091422;28;20468;-70
2023/01/29 02:41:58;;;;;;;4.13;2.53;;;;;;;;;;5091052;28;20947;-71
2023/01/29 02:44:31;;;;;;;2.83;2.47;;;;;;;;;;5091133;28;20472;-71
2023/01/29 02:47:00;;;;;;;2.63;2.33;;;;;;;;;;5091505;28;20441;-71
2023/01/29 02:49:32;;;;;;;2.50;1.73;;;;;;;;;;5090906;28;20484;-70
2023/01/29 02:52:01;;;;;;;3.67;2.70;;;;;;;;;;5091084;28;20449;-70
2023/01/29 02:54:31;;;;;;;3.60;2.60;;;;;;;;;;5090986;28;20447;-70
2023/01/29 02:57:00;;;;;;;2.93;2.13;;;;;;;;;;5091336;28;20445;-70
2023/01/29 02:59:32;;;;;;;3.13;2.60;;;;;;;;;;5090977;28;20450;-70
2023/01/29 03:02:02;;;;;;;2.33;2.07;;;;;;;;;;5084945;28;20440;-70
2023/01/29 03:04:30;;;;;;;5.03;2.87;;;;;;;;;;5090691;28;20445;-71
2023/01/29 03:06:59;;;;;;;2.60;2.20;;;;;;;;;;5086471;28;20453;-70
2023/01/29 03:09:28;;;;;;;3.63;3.20;;;;;;;;;;5087313;28;20491;-71
2023/01/29 03:11:59;;;;;;;3.87;2.30;;;;;;;;;;5091153;28;20456;-70
2023/01/29 03:15:10;;;;;;;4.00;3.30;;;;;;;;;;5090708;28;20445;-70
2023/01/29 03:17:20;;;;;;;5.37;3.27;;;;;;;;;;5091148;28;20446;-70
2023/01/29 03:19:48;;;;;;;2.80;1.83;;;;;;;;;;5091441;28;20464;-71
2023/01/29 03:22:17;;;;;;;3.07;2.37;;;;;;;;;;5090860;28;20445;-70
2023/01/29 03:33:07;;;;;;;3.80;2.47;;;;;;;;;;5090722;28;20491;-70
2023/01/29 03:35:36;;;;;;;2.00;1.80;;;;;;;;;;5090449;28;20455;-70
2023/01/29 03:38:03;;;;;;;2.67;2.40;;;;;;;;;;5091112;28;20548;-70
2023/01/29 03:40:35;;;;;;;2.40;2.20;;;;;;;;;;5090509;28;20448;-70
2023/01/29 03:43:06;;;;;;;3.57;3.17;;;;;;;;;;5090242;28;20460;-70
2023/01/29 03:45:41;;;;;;;2.13;1.80;;;;;;;;;;5077031;28;20489;-70
2023/01/29 03:48:12;;;;;;;2.03;1.83;;;;;;;;;;5093315;28;20572;-70
2023/01/29 03:50:42;;;;;;;3.00;2.70;;;;;;;;;;5094196;28;20484;-71
2023/01/29 03:53:15;;;;;;;2.80;1.53;;;;;;;;;;5094679;28;20459;-70
2023/01/29 03:55:43;;;;;;;8.47;2.83;;;;;;;;;;5094595;28;20436;-71
2023/01/29 03:58:16;;;;;;;4.17;2.70;;;;;;;;;;5094901;28;20452;-70
2023/01/29 04:00:45;;;;;;;3.33;2.57;;;;;;;;;;5094281;28;20452;-69
2023/01/29 04:03:20;;;;;;;3.40;2.33;;;;;;;;;;5094779;28;20449;-72
2023/01/29 04:05:50;;;;;;;5.37;2.67;;;;;;;;;;5094875;28;20447;-71
2023/01/29 04:08:21;;;;;;;4.93;2.20;;;;;;;;;;5091171;28;20459;-70
2023/01/29 04:10:49;;;;;;;3.40;2.00;;;1.30;16.50;;;;;;5088365;28;20468;-70
2023/01/29 04:13:18;;;;;;;3.50;2.60;;;2.00;1.00;;;;;;5094634;28;20817;-72
2023/01/29 04:15:49;;;;;;;3.00;2.63;;;2.10;1.00;;;;;;5094272;28;20455;-71
2023/01/29 04:18:17;;;;;;;2.57;2.37;;;2.10;1.00;;;;;;5093058;28;20920;-71
2023/01/29 04:20:44;;;;;;;3.83;3.10;;;2.10;1.00;;;;;;5092883;28;20444;-71
2023/01/29 04:23:20;;;;;;;2.27;1.90;;;2.20;1.00;;;;;;5094359;28;20456;-71
2023/01/29 04:26:05;;;;;;;2.60;2.10;;;2.00;1.00;;;;;;5094248;28;20445;-71
2023/01/29 04:28:48;;;;;;;2.43;2.03;;;2.10;1.00;;;;;;5094049;28;20522;-70
2023/01/29 04:31:15;;;;;;;6.50;4.80;;;2.00;1.00;;;;;;5092146;28;20443;-70
2023/01/29 04:33:50;;;;;;;6.50;2.83;;;2.00;1.00;;;;;;5093634;28;20456;-70
2023/01/29 04:36:28;;;;;;;2.50;2.23;;;2.00;1.00;;;;;;5094170;28;20460;-70
2023/01/29 04:39:04;;;;;;;3.53;1.73;;;1.80;1.00;;;;;;5094076;28;20449;-70
2023/01/29 04:41:37;;;;;;;3.20;2.13;;;2.00;1.00;;;;;;5092752;28;20467;-70
2023/01/29 04:44:09;;;;;;;5.10;3.40;;;2.00;1.00;;;;;;5093483;28;20479;-70
2023/01/29 04:46:46;;;;;;;3.03;2.50;;;2.00;1.00;;;;;;5092973;28;20446;-71
2023/01/29 04:49:23;;;;;;;5.50;2.40;;;2.10;1.00;;;;;;5093857;28;20472;-70
2023/01/29 04:51:58;;;;;;;4.80;2.53;;;2.10;1.00;;;;;;5091134;28;20455;-70
2023/01/29 04:54:34;;;;;;;2.90;1.87;;;2.10;1.00;;;;;;5093134;28;20954;-71
2023/01/29 04:57:09;;;;;;;6.10;2.73;;;2.10;1.00;;;;;;5085959;28;20523;-70
2023/01/29 04:59:40;;;;;;;3.17;2.10;;;2.00;1.00;;;;;;5092638;28;20452;-70
2023/01/29 05:02:09;;;;;;;4.37;2.03;;;2.00;1.00;;;;;;5089826;28;20444;-70
2023/01/29 05:04:40;;;;;;;6.03;3.00;;;2.10;1.00;;;;;;5092808;28;20444;-70
2023/01/29 05:07:11;;;;;;;4.23;2.50;;;2.10;1.00;;;;;;5093661;28;20523;-70
2023/01/29 05:09:39;;;;;;;2.60;2.40;;;2.00;1.00;;;;;;5092409;28;20464;-70
2023/01/29 05:12:09;;;;;;;3.10;1.90;;;1.80;1.00;;;;;;5092389;28;20468;-70
2023/01/29 05:14:37;;;;;;;4.50;3.80;;;2.00;1.00;;;;;;5092473;28;20457;-71
2023/01/29 05:17:10;;;;;;;2.47;2.27;;;2.00;1.00;;;;;;5092733;28;20449;-70
2023/01/29 05:19:38;;;;;;;2.43;2.10;;;2.00;1.00;;;;;;5092821;28;20445;-70
2023/01/29 05:22:06;;;;;;;4.90;2.37;;;2.00;1.00;;;;;;5092427;28;20445;-70
2023/01/29 05:24:35;;;;;;;4.60;3.43;;;2.00;1.00;;;;;;5092832;28;20567;-71
2023/01/29 05:29:48;;;;;;;7.07;3.03;;;2.10;1.00;;;;;;5093157;28;20537;-70
2023/01/29 05:32:16;;;;;;;3.47;2.10;;;2.00;1.00;;;;;;5092346;28;20455;-70
2023/01/29 05:34:44;;;;;;;7.60;3.17;;;2.00;1.00;;;;;;5092579;28;20449;-70
2023/01/29 05:37:11;;;;;;;3.30;2.90;;;2.10;1.00;;;;;;5092352;28;20936;-71
2023/01/29 05:39:37;;;;;;;2.90;2.47;;;2.10;1.00;;;;;;5092134;28;20453;-72
2023/01/29 05:42:04;;;;;;;3.73;2.63;;;2.10;1.00;;;;;;5092094;28;20962;-71
2023/01/29 05:44:31;;;;;;;2.70;2.50;;;2.10;1.00;;;;;;5091866;28;20477;-70
2023/01/29 05:46:58;;;;;;;2.60;2.10;;;2.00;1.00;;;;;;5092469;28;20432;-70
2023/01/29 05:49:25;;;;;;;3.10;1.83;;;2.10;1.00;;;;;;5091473;28;20488;-70
2023/01/29 05:51:53;;;;;;;3.83;2.87;;;2.10;1.00;;;;;;5092294;28;20445;-71
2023/01/29 05:54:20;;;;;;;2.83;2.63;;;2.10;1.00;;;;;;5092352;28;20457;-67
2023/01/29 05:56:46;;;;;;;5.77;1.80;;;1.90;1.00;;;;;;5084886;28;20946;-71
2023/01/29 05:59:15;;;;;;;3.43;1.80;;;2.00;1.00;;;;;;5092732;28;20479;-70
2023/01/29 06:01:41;;;;;;;2.53;2.10;;;2.00;1.00;;;;;;5091477;28;20445;-71
2023/01/29 06:04:08;;;;;;;3.80;3.10;;;2.00;1.00;;;;;;5092624;28;20455;-70
2023/01/29 06:06:35;;;;;;;3.60;2.57;;;2.00;1.00;;;;;;5091964;28;20444;-70
2023/01/29 06:09:03;;;;;;;3.97;2.20;;;2.00;1.00;;;;;;5091140;28;20451;-70
2023/01/29 06:11:30;;;;;;;2.23;2.00;;;2.10;1.00;;;;;;5090537;28;20504;-70
2023/01/29 06:13:57;;;;;;;6.40;3.07;;;2.10;1.00;;;;;;5092451;28;20457;-70
2023/01/29 06:16:24;;;;;;;4.00;2.17;;;2.20;1.00;;;;;;5077978;28;20467;-70
2023/01/29 06:18:51;;;;;;;5.40;4.10;;;2.00;1.00;;;;;;5092159;28;20453;-70
2023/01/29 06:21:18;;;;;;;2.60;2.40;;;1.90;1.00;;;;;;5092045;28;20446;-71
2023/01/29 06:23:44;;;;;;;6.00;3.70;;;1.50;1.00;;;;;;5091971;28;21001;-70
2023/01/29 06:26:14;;;;;;;3.00;2.10;;;1.70;1.00;;;;;;5087273;28;20924;-71
2023/01/29 06:28:41;;;;;;;4.00;2.40;;;1.80;1.00;;;;;;5086561;28;20468;-70
2023/01/29 06:31:08;;;;;;;2.73;2.53;;;1.90;1.00;;;;;;5090420;28;20824;-70
2023/01/29 06:33:35;;;;;;;3.07;2.50;;;1.80;1.00;;;;;;5087263;28;20948;-70
2023/01/29 06:36:04;;;;;;;3.33;2.67;;;1.80;1.00;;;;;;5091994;28;20444;-70
2023/01/29 06:38:31;;;;;;;3.67;3.30;;;1.80;1.00;;;;;;5091498;28;20496;-71
2023/01/29 06:40:58;;;;;;;2.80;2.13;;;1.90;1.00;;;;;;5090986;28;20473;-71
2023/01/29 06:43:26;;;;;;;2.87;1.70;;;1.90;1.00;;;;;;5090725;28;20448;-70
2023/01/29 06:45:55;;;;;;;2.77;2.50;;;1.90;1.00;;;;;;5091474;28;20449;-71
2023/01/29 06:48:23;;;;;;;2.37;1.90;;;1.70;1.00;;;;;;5091121;28;20457;-70
2023/01/29 06:50:50;;;;;;;3.37;3.07;;;1.60;1.00;;;;;;5091204;28;20477;-70
2023/01/29 06:53:18;;;;;;;3.20;2.37;;;1.60;1.00;;;;;;5091830;28;20450;-71
2023/01/29 06:55:51;;;;;;;1.77;1.50;;;1.80;1.00;;;;;;5091784;28;20820;-71
2023/01/29 06:58:18;;;;;;;4.40;2.07;;;1.90;1.00;;;;;;5091014;28;20444;-71
2023/01/29 07:00:46;;;;;;;5.30;2.30;;;1.90;1.00;;;;;;5091294;28;20460;-71
2023/01/29 07:03:13;;;;;;;5.10;2.73;;;2.00;1.00;;;;;;5091288;28;20441;-71
2023/01/29 07:05:40;;;;;;;2.77;2.30;;;2.00;1.00;;;;;;5091029;28;20468;-71
2023/01/29 07:08:08;;;;;;;2.60;2.40;;;2.00;1.00;;;;;;5091529;28;20456;-72
2023/01/29 07:10:35;;;;;;;2.93;1.80;;;2.00;1.00;;;;;;5091660;28;20537;-71
2023/01/29 07:13:02;;;;;;;3.13;2.00;;;2.00;1.00;;;;;;5096496;28;20453;-70
2023/01/29 07:15:29;;;;;;;3.90;2.00;;;1.90;1.00;;;;;;5096746;28;20531;-71
2023/01/29 07:17:58;;;;;;;2.70;2.20;;;2.00;1.00;;;;;;5098895;28;20444;-71
2023/01/29 07:20:26;;;;;;;2.30;1.87;;;1.90;1.00;;;;;;5098846;28;20486;-71
2023/01/29 07:22:53;;;;;;;4.20;2.67;;;1.80;1.00;;;;;;5114259;28;20451;-70
2023/01/29 07:25:20;;;;;;;2.70;2.40;;;1.90;1.00;;;;;;5101772;28;20455;-67
2023/01/29 07:27:48;;;;;;;2.07;1.80;;;1.90;1.00;;;;;;5106443;28;20517;-71
2023/01/29 07:30:15;;;;;;;3.70;2.27;;;2.00;1.00;;;;;;5102251;28;20477;-71
2023/01/29 07:32:42;;;;;;;2.53;2.03;;;2.10;1.00;;;;;;5095686;28;20451;-71
2023/01/29 07:35:11;;;;;;;3.80;2.20;;;2.10;1.00;;;;;;5091697;28;20812;-71
2023/01/29 07:37:37;;;;;;;5.00;3.40;;;2.10;1.00;;;;;;5090855;28;20480;-71
2023/01/29 07:40:10;;;;;;;2.40;2.20;;;2.10;1.00;;;;;;5091026;28;20460;-71
2023/01/29 07:42:37;;;;;;;3.20;2.80;;;2.10;1.00;;;;;;5089440;28;20453;-71
2023/01/29 07:45:04;;;;;;;3.67;2.80;;;2.20;1.00;;;;;;5090739;28;20507;-71
2023/01/29 07:47:31;;;;;;;2.77;2.10;;;2.20;1.00;;;;;;5089850;28;20463;-71
2023/01/29 07:49:58;;;;;;;4.27;2.80;;;2.20;1.00;;;;;;5090935;28;20450;-71
2023/01/29 07:52:26;;;;;;;3.10;1.87;;;2.10;1.00;;;;;;5089552;28;20531;-71
2023/01/29 07:54:53;;;;;;;4.40;4.00;;;2.20;1.00;;;;;;5087511;28;20447;-71
2023/01/29 07:57:19;;;;;;;4.43;3.30;;;2.30;1.00;;;;;;5090099;28;20924;-69
2023/01/29 07:59:46;;;;;;;2.47;2.00;;;2.30;1.00;;;;;;5090370;28;20964;-71
2023/01/29 08:02:13;;;;;;;3.07;2.20;;;2.30;1.00;;;;;;5080799;28;20454;-71
2023/01/29 08:04:40;;;;;;;4.20;2.90;;;2.20;1.00;;;;;;5087380;28;20456;-71
2023/01/29 08:07:08;;;;;;;3.73;2.97;;;2.30;1.00;;;;;;5090697;28;20450;-71
2023/01/29 08:09:36;;;;;;;2.60;2.00;;;2.30;1.00;;;;;;5089336;28;20445;-71
2023/01/29 08:12:03;;;;;;;5.33;3.20;;;2.30;1.00;;;;;;5090111;28;20849;-71
2023/01/29 08:14:30;;;;;;;4.13;2.17;;;2.30;1.00;;;;;;5089992;28;20472;-71
2023/01/29 08:16:57;;;;;;;5.83;4.70;;;2.30;1.00;;;;;;5090778;28;20449;-71
2023/01/29 08:19:23;;;;;;;3.23;2.90;;;2.30;1.00;;;;;;5089233;28;20458;-71
2023/01/29 08:21:50;;;;;;;4.63;3.43;;;2.40;99.90;;;;;;5090444;28;20450;-71
2023/01/29 08:24:17;;;;;;;3.83;3.33;;;2.50;99.90;;;;;;5090312;28;20446;-72
2023/01/29 08:26:45;;;;;;;4.70;4.20;;;2.50;99.90;;;;;;5090131;28;20452;-73
2023/01/29 08:29:12;;;;;;;4.20;2.80;;;2.40;99.90;;;;;;5090240;28;20450;-72
2023/01/29 08:31:39;;;;;;;5.07;3.13;;;2.40;99.90;;;;;;5088513;28;20484;-72
2023/01/29 08:34:06;;;;;;;6.90;1.90;;;2.40;99.90;;;;;;5091942;28;20947;-72
2023/01/29 08:36:33;;;;;;;7.77;3.80;;;;;;;;;;5093839;28;20456;-71
2023/01/29 08:39:01;;;;;;;8.67;3.20;;;;;;;;;;5093877;28;20499;-71
2023/01/29 08:41:28;;;;;;;5.73;2.90;;;;;;;;;;5093241;28;20454;-71
2023/01/29 08:43:56;;;;;;;3.80;3.00;;;;;;;;;;5093109;28;20485;-71
2023/01/29 08:46:23;;;;;;;5.03;4.10;;;;;;;;;;5093146;28;20437;-70
2023/01/29 08:48:51;;;;;;;4.77;3.33;;;;;;;;;;5093360;28;20817;-71
2023/01/29 08:51:18;;;;;;;4.77;3.17;;;;;;;;;;5093646;28;20489;-71
2023/01/29 08:53:45;;;;;;;4.93;2.90;;;;;;;;;;5093556;28;20449;-71
2023/01/29 08:56:12;;;;;;;6.50;2.90;;;;;;;;;;5087468;28;20453;-71
2023/01/29 08:58:39;;;;;;;2.50;2.30;;;;;;;;;;5093348;28;21273;-71
2023/01/29 09:01:08;;;;;;;5.30;2.93;;;;;;;;;;5092747;28;20569;-71
2023/01/29 09:03:35;;;;;;;4.50;4.10;;;;;;;;;;5092936;28;20448;-71
2023/01/29 09:06:02;;;;;;;7.23;3.47;;;;;;;;;;5093071;28;20463;-71
2023/01/29 09:08:29;;;;;;;4.03;3.23;;;;;;;;;;5092249;28;20812;-71
2023/01/29 09:10:59;;;;;;;6.57;3.53;;;;;;;;;;5093018;28;20481;-71
2023/01/29 09:13:26;;;;;;;3.40;2.90;;;;;;;;;;5092892;28;20449;-71
2023/01/29 09:15:53;;;;;;;5.33;3.47;;;;;;;;;;5093337;28;20454;-72
2023/01/29 09:18:23;;;;;;;4.37;3.63;;;;;;;;;;5091907;28;20453;-71
2023/01/29 09:20:50;;;;;;;5.83;3.27;;;;;;;;;;5092987;28;20452;-71
2023/01/29 09:23:17;;;;;;;5.00;3.67;;;;;;;;;;5092971;28;20448;-72
2023/01/29 09:25:45;;;;;;;7.60;3.00;;;;;;;;;;5092908;28;20824;-72
2023/01/29 09:28:12;;;;;;;3.13;2.83;;;;;;;;;;5092928;28;20452;-72
2023/01/29 09:30:39;;;;;;;3.77;3.10;;;;;;;;;;5091843;28;20485;-71
2023/01/29 09:33:06;;;;;;;2.57;2.37;;;;;;;;;;5092562;28;20806;-72
2023/01/29 09:35:35;;;;;;;8.80;3.83;;;;;;;;;;5091931;28;20453;-71
2023/01/29 09:38:02;;;;;;;3.43;3.13;;;;;;;;;;5093122;28;20452;-72
2023/01/29 09:40:31;;;;;;;4.37;3.63;;;;;;;;;;5091512;28;20469;-72
2023/01/29 09:43:01;;;;;;;4.73;3.33;;;;;;;;;;5092651;28;20471;-72
2023/01/29 09:45:29;;;;;;;5.23;3.90;;;;;;;;;;5090849;28;20842;-71
2023/01/29 09:47:57;;;;;;;4.17;3.50;;;;;;;;;;5092708;28;20471;-72
2023/01/29 09:50:27;;;;;;;4.43;3.30;;;;;;;;;;5090967;28;20444;-71
2023/01/29 09:52:58;;;;;;;3.77;2.90;;;;;;;;;;5092316;28;20449;-73
2023/01/29 09:55:26;;;;;;;4.87;3.43;;;;;;;;;;5091105;28;20464;-72
2023/01/29 09:57:55;;;;;;;3.80;3.10;;;;;;;;;;5091287;28;20433;-72
2023/01/29 10:00:25;;;;;;;3.50;3.00;;;;;;;;;;5091040;28;20470;-72
2023/01/29 10:03:12;;;;;;;3.00;2.43;;;;;;;;;;5091887;28;20933;-71
2023/01/29 10:05:47;;;;;;;5.00;3.70;;;;;;;;;;5083344;28;20712;-73
2023/01/29 10:08:32;;;;;;;4.77;3.53;;;;;;;;;;5092403;28;20448;-70
2023/01/29 10:11:05;;;;;;;4.50;3.47;;;;;;;;;;5076789;28;20483;-72
2023/01/29 10:13:37;;;;;;;4.57;3.67;;;;;;;;;;5091915;28;20556;-68
2023/01/29 10:16:18;;;;;;;5.07;3.43;;;;;;;;;;5087332;28;20452;-74
2023/01/29 10:19:00;;;;;;;3.53;3.23;;;;;;;;;;5077704;28;20441;-73
2023/01/29 10:21:42;;;;;;;5.27;3.50;;;;;;;;;;5077783;28;20449;-75
2023/01/29 10:24:16;;;;;;;4.20;2.90;;;;;;;;;;5073133;28;20932;-73
2023/01/29 10:26:44;;;;;;;3.90;3.53;;;;;;;;;;5087966;28;20466;-73
2023/01/29 10:29:15;;;;;;;3.70;3.30;;;;;;;;;;5083914;28;20963;-72
2023/01/29 10:31:42;;;;;;;3.33;3.07;;;;;;;;;;5081670;28;20838;-73
2023/01/29 10:34:14;;;;;;;4.23;3.40;;;;;;;;;;5081946;28;20931;-72
2023/01/29 10:36:43;;;;;;;4.47;3.27;;;;;;;;;;5077188;28;20450;-71
2023/01/29 10:39:13;;;;;;;5.07;3.50;;;;;;;;;;5088763;28;20456;-72
2023/01/29 10:41:48;;;;;;;4.60;4.00;;;;;;;;;;5084878;28;20900;-72
2023/01/29 10:44:25;;;;;;;5.43;3.87;;;;;;;;;;5079022;28;20468;-72
2023/01/29 10:47:01;;;;;;;3.10;2.60;;;;;;;;;;5075993;28;20452;-72
2023/01/29 10:49:36;;;;;;;6.60;3.67;;;;;;;;;;5088852;28;20440;-72
2023/01/29 10:52:09;;;;;;;3.83;3.43;;;;;;;;;;5088252;28;20478;-72
2023/01/29 10:54:44;;;;;;;4.07;3.17;;;;;;;;;;5088228;28;20455;-73
2023/01/29 10:57:15;;;;;;;7.17;3.37;;;;;;;;;;5088889;28;20486;-72
2023/01/29 10:59:50;;;;;;;4.10;3.03;;;;;;;;;;5087641;28;20448;-73
2023/01/29 11:02:20;;;;;;;5.50;3.63;;;;;;;;;;5082413;28;20448;-72
2023/01/29 11:04:47;;;;;;;4.90;3.57;;;;;;;;;;5084613;28;20451;-72
2023/01/29 11:07:16;;;;;;;5.73;3.53;;;;;;;;;;5084173;28;20784;-74
2023/01/29 11:09:46;;;;;;;3.60;3.17;;;;;;;;;;5085894;28;20875;-72
2023/01/29 11:12:17;;;;;;;4.73;4.17;;;;;;;;;;5086307;28;20499;-72
2023/01/29 11:14:46;;;;;;;4.97;3.87;;;;;;;;;;5075379;28;20447;-72
2023/01/29 11:17:16;;;;;;;4.50;3.60;;;;;;;;;;5083331;28;20442;-70
2023/01/29 11:19:44;;;;;;;3.20;2.67;;;;;;;;;;5088224;28;20459;-70
2023/01/29 11:22:14;;;;;;;4.40;3.97;;;;;;;;;;5087824;28;20467;-70
2023/01/29 11:24:42;;;;;;;5.27;3.40;;;;;;;;;;5088170;28;20444;-71
2023/01/29 11:27:16;;;;;;;4.07;3.40;;;;;;;;;;5078665;28;20446;-70
2023/01/29 11:29:45;;;;;;;5.03;3.47;;;;;;;;;;5085890;28;20513;-71
2023/01/29 11:32:14;;;;;;;6.80;4.37;;;;;;;;;;5084789;28;20495;-70
2023/01/29 11:34:57;;;;;;;3.83;2.90;;;;;;;;;;5087103;28;20466;-71
2023/01/29 11:37:32;;;;;;;4.40;3.47;;;;;;;;;;5083525;28;20791;-70
2023/01/29 11:39:59;;;;;;;5.47;4.00;;;;;;;;;;5087089;28;20447;-71
2023/01/29 11:42:31;;;;;;;4.83;3.57;;;;;;;;;;5087658;28;20479;-71
2023/01/29 11:44:58;;;;;;;4.37;3.97;;;;;;;;;;5087910;28;20479;-71
2023/01/29 11:47:27;;;;;;;4.57;3.20;;;;;;;;;;5087440;28;20452;-71
2023/01/29 11:49:55;;;;;;;3.00;2.50;;;;;;;;;;5084406;28;20456;-71
2023/01/29 11:52:23;;;;;;;6.47;3.23;;;;;;;;;;5081577;28;20489;-72
2023/01/29 11:54:52;;;;;;;4.53;2.70;;;;;;;;;;5085770;28;21078;-70
2023/01/29 11:57:33;;;;;;;4.23;3.13;;;;;;;;;;5087799;28;20781;-71
2023/01/29 12:00:02;;;;;;;3.00;2.57;;;;;;;;;;5088076;28;20443;-71
2023/01/29 12:02:33;;;;;;;5.07;3.63;;;;;;;;;;5087459;28;20451;-71
2023/01/29 12:05:02;;;;;;;4.03;3.40;;;;;;;;;;5088268;28;20449;-71
2023/01/29 12:07:29;;;;;;;5.77;3.33;;;;;;;;;;5087451;28;20811;-71
2023/01/29 12:09:58;;;;;;;6.57;3.97;;;;;;;;;;5091616;28;20455;-71
2023/01/29 12:12:31;;;;;;;5.83;4.40;;;;;;;;;;5090933;28;20487;-71
2023/01/29 12:15:16;;;;;;;8.07;4.33;;;;;;;;;;5092459;28;20450;-70
2023/01/29 12:17:46;;;;;;;3.93;2.97;;;;;;;;;;5089422;28;20521;-71
2023/01/29 12:20:15;;;;;;;10.57;3.80;;;;;;;;;;5091170;28;20468;-70
2023/01/29 12:22:45;;;;;;;9.53;4.13;;;;;;;;;;5091174;28;20448;-71
2023/01/29 12:25:19;;;;;;;5.37;4.80;;;;;;;;;;5091637;28;20446;-71
2023/01/29 12:27:50;;;;;;;6.83;3.90;;;;;;;;;;5079090;28;20445;-70
2023/01/29 12:30:20;;;;;;;4.73;3.20;;;;;;;;;;5091454;28;20805;-71
2023/01/29 12:32:50;;;;;;;5.23;4.13;;;;;;;;;;5079590;28;20995;-71
2023/01/29 12:35:20;;;;;;;5.20;3.43;;;;;;;;;;5091775;28;20470;-71
2023/01/29 12:37:50;;;;;;;6.60;3.63;;;;;;;;;;5081211;28;20448;-70
2023/01/29 12:40:18;;;;;;;12.10;4.53;;;;;;;;;;5090992;28;20447;-71
2023/01/29 12:42:47;;;;;;;4.97;3.73;;;;;;;;;;5091932;28;20462;-71
2023/01/29 12:45:18;;;;;;;6.30;3.77;;;;;;;;;;5090648;28;20471;-70
2023/01/29 12:47:47;;;;;;;4.40;3.43;;;;;;;;;;5091162;28;20480;-71
2023/01/29 12:50:18;;;;;;;5.40;3.90;;;;;;;;;;5088751;28;20461;-71
2023/01/29 12:52:47;;;;;;;7.20;4.23;;;;;;;;;;5091130;28;20474;-71
2023/01/29 12:55:18;;;;;;;5.53;4.50;;;;;;;;;;5090903;28;20454;-71
2023/01/29 12:57:47;;;;;;;5.00;3.53;;;;;;;;;;5091355;28;20450;-70
2023/01/29 13:00:17;;;;;;;7.47;4.23;;;;;;;;;;5090704;28;20462;-71
2023/01/29 13:02:50;;;;;;;8.80;3.67;;;;;;;;;;5090302;28;20453;-71
2023/01/29 13:05:20;;;;;;;14.47;4.60;;;;;;;;;;5091224;28;20447;-72
2023/01/29 13:07:48;;;;;;;5.13;3.43;;;;;;;;;;5091420;28;20441;-71
2023/01/29 13:10:18;;;;;;;9.07;4.40;;;;;;;;;;5090673;28;20453;-71
2023/01/29 13:12:50;;;;;;;6.63;3.17;;;;;;;;;;5090362;28;20622;-71
2023/01/29 13:15:22;;;;;;;3.80;2.93;;;;;;;;;;5090778;28;20442;-71
2023/01/29 13:17:52;;;;;;;3.50;3.00;;;;;;;;;;5090394;28;20527;-71
2023/01/29 13:20:21;;;;;;;5.67;3.73;;;;;;;;;;5090317;28;20776;-68
2023/01/29 13:22:49;;;;;;;4.10;3.47;;;;;;;;;;5091005;28;20456;-71
2023/01/29 13:25:17;;;;;;;9.50;4.33;;;;;;;;;;5090599;28;20452;-70
2023/01/29 13:27:46;;;;;;;5.23;3.53;;;;;;;;;;5082512;28;20446;-72
2023/01/29 13:30:24;;;;;;;5.00;4.47;;;;;;;;;;5090446;28;20479;-72
2023/01/29 13:32:54;;;;;;;3.30;2.47;;;;;;;;;;5088134;28;20832;-71
2023/01/29 13:35:22;;;;;;;8.43;3.53;;;;;;;;;;5088730;28;20446;-71
2023/01/29 13:37:50;;;;;;;6.43;3.73;;;;;;;;;;5090636;28;20440;-70
2023/01/29 13:40:23;;;;;;;8.43;3.90;;;;;;;;;;5089426;28;20455;-71
2023/01/29 13:42:51;;;;;;;9.43;4.40;;;;;;;;;;5090685;28;20547;-71
2023/01/29 13:45:21;;;;;;;7.03;4.00;;;;;;;;;;5090539;28;20477;-71
2023/01/29 13:47:49;;;;;;;4.43;3.30;;;;;;;;;;5085661;28;20451;-71
2023/01/29 13:50:21;;;;;;;5.17;3.53;;;;;;;;;;5086106;28;20455;-71
2023/01/29 13:52:53;;;;;;;6.90;3.93;;;;;;;;;;5089974;28;20468;-71
2023/01/29 13:55:25;;;;;;;3.53;2.47;;;;;;;;;;5089426;28;20451;-71
2023/01/29 13:57:53;;;;;;;5.77;4.60;;;;;;;;;;5089953;28;20445;-72
2023/01/29 14:00:39;;;;;;;6.27;2.77;;;;;;;;;;5088323;28;20454;-70
2023/01/29 14:03:27;;;;;;;4.13;2.90;;;;;;;;;;5089964;28;20478;-72
2023/01/29 14:05:59;;;;;;;3.97;3.10;;;;;;;;;;5088187;28;20445;-70
2023/01/29 14:08:42;;;;;;;4.20;3.80;;;;;;;;;;5089638;28;20854;-72
2023/01/29 14:11:42;;;;;;;7.07;4.20;;;;;;;;;;5088153;28;20465;-71
2023/01/29 14:14:24;;;;;;;7.83;4.20;;;;;;;;;;5007256;28;20452;-72
2023/01/29 14:16:51;;;;;;;5.33;3.83;;;;;;;;;;5006285;28;20459;-72
2023/01/29 14:19:19;;;;;;;4.23;3.10;;;;;;;;;;5046166;28;20871;-72
2023/01/29 14:21:50;;;;;;;4.60;3.00;;;;;;;;;;5089615;28;20474;-71
2023/01/29 14:24:18;;;;;;;6.43;4.27;;;;;;;;;;5088993;28;20441;-72
2023/01/29 14:26:47;;;;;;;5.43;3.40;;;;;;;;;;5089887;28;20448;-72
2023/01/29 14:29:19;;;;;;;6.50;4.10;;;;;;;;;;5088965;28;20443;-73
2023/01/29 14:31:48;;;;;;;9.77;5.00;;;;;;;;;;5088874;28;20864;-72
2023/01/29 14:34:19;;;;;;;7.13;4.40;;;;;;;;;;5089413;28;20459;-72
2023/01/29 14:36:49;;;;;;;5.60;3.73;;;;;;;;;;5089753;28;20451;-72
2023/01/29 14:39:29;;;;;;;6.63;3.77;;;;;;;;;;5089431;28;20453;-72
2023/01/29 14:41:57;;;;;;;8.10;3.43;;;;;;;;;;5088948;28;20548;-72
2023/01/29 14:44:43;;;;;;;3.60;3.30;;;;;;;;;;5088316;28;20476;-72
2023/01/29 14:47:18;;;;;;;5.83;3.83;;;;;;;;;;5075970;28;20973;-73
2023/01/29 14:49:49;;;;;;;8.83;5.50;;;;;;;;;;5085841;28;20445;-72
2023/01/29 14:52:19;;;;;;;6.07;3.83;;;;;;;;;;5089056;28;20480;-73